Terminal Aerodrome Forecast
Issued by NWS

Home | Current Version | Previous Version | Text Only | Print | Product List | Glossary On
Versions: 1 2 3 4 5 6 7 8 9 10 11 12 13 14 15
000
FTUS46 KLOX 300525
TAFSBP
TAF
KSBP 300525Z 3006/0106 VRB03KT P6SM SKC
     FM300700 VRB03KT 1SM BR OVC002
     FM300900 VRB03KT 1/4SM FG VV002
     FM301600 31008KT P6SM SKC
     FM302100 32015KT P6SM SKC
     FM010200 32008KT P6SM SKC=

USA.gov is the U.S. government's official web portal to all federal, state and local government web resources and services.